Terminal Aerodrome Forecast
Issued by NWS Mt. Holly, NJ

Current Version | Previous Version | Text Only | Print | Product List | Glossary On
Versions: 1 2 3 4 5 6 7 8 9 10 11 12 13 14 15 16 17 18 19 20 21 22
000
FTUS41 KPHI 160100 AAA
TAFTTN
TAF AMD
KTTN 160157Z 1602/1624 34015G25KT 6SM -SHRA BR SCT015 OVC035
      TEMPO 1602/1605 5SM -SHRA OVC015
     FM160500 35015G25KT P6SM SCT030
     FM160700 34012G22KT P6SM FEW050
     FM161800 02014G20KT P6SM BKN250
     FM162100 02009KT P6SM SKC=

USA.gov is the U.S. government's official web portal to all federal, state and local government web resources and services.